Time;durP1;ratioP1;P1;durP2;ratioP2;P2;SDS_P1;SDS_P2;PMS_P1;PMS_P2;Temp;Humidity;BMP_temperature;BMP_pressure;BME280_temperature;BME280_humidity;BME280_pressure;Samples;Min_cycle;Max_cycle;Signal;HPM_P1;HPM_P2
2022/08/06 00:00:29;;;;;;;2.10;1.65;;;12.50;99.90;;;;;;5013678;28;20057;-87
2022/08/06 00:02:54;;;;;;;3.15;1.58;;;12.50;99.90;;;;;;5028862;28;20049;-87
2022/08/06 00:05:20;;;;;;;1.75;1.65;;;12.50;99.90;;;;;;5012976;28;20061;-86
2022/08/06 00:07:46;;;;;;;3.67;1.50;;;12.40;99.90;;;;;;5015148;28;20041;-86
2022/08/06 00:10:12;;;;;;;5.65;2.40;;;12.40;99.90;;;;;;5016745;28;20050;-88
2022/08/06 00:12:38;;;;;;;2.63;1.70;;;12.40;99.90;;;;;;5000915;28;20052;-87
2022/08/06 00:15:04;;;;;;;5.13;1.75;;;12.30;99.90;;;;;;5000706;28;20427;-87
2022/08/06 00:17:30;;;;;;;3.70;1.70;;;12.30;99.90;;;;;;5000578;28;20049;-88
2022/08/06 00:19:56;;;;;;;2.88;1.73;;;12.30;99.90;;;;;;5000323;28;20050;-88
2022/08/06 00:22:21;;;;;;;5.72;1.65;;;12.30;99.90;;;;;;5000620;28;20037;-87
2022/08/06 00:24:47;;;;;;;5.05;2.08;;;12.20;99.90;;;;;;5016900;28;20090;-87
2022/08/06 00:27:12;;;;;;;3.10;1.90;;;12.20;99.90;;;;;;5015654;28;20057;-87
2022/08/06 00:29:38;;;;;;;3.92;1.75;;;12.10;99.90;;;;;;4999882;28;20383;-87
2022/08/06 00:32:04;;;;;;;3.08;1.60;;;12.10;99.90;;;;;;5015904;28;20515;-88
2022/08/06 00:34:30;;;;;;;3.83;2.03;;;12.00;99.90;;;;;;5000110;28;20125;-86
2022/08/06 00:36:56;;;;;;;2.67;1.70;;;12.00;99.90;;;;;;5015872;28;20071;-86
2022/08/06 00:39:21;;;;;;;3.80;1.70;;;12.00;99.90;;;;;;5033779;28;20371;-87
2022/08/06 00:41:47;;;;;;;3.70;1.83;;;12.00;99.90;;;;;;5000117;28;20052;-87
2022/08/06 00:44:13;;;;;;;6.28;2.03;;;11.90;99.90;;;;;;5033385;28;20045;-87
2022/08/06 00:46:39;;;;;;;2.72;2.03;;;11.90;99.90;;;;;;4999891;28;20061;-87
2022/08/06 00:49:05;;;;;;;3.47;1.90;;;11.80;99.90;;;;;;4999143;28;20145;-86
2022/08/06 00:51:31;;;;;;;4.00;1.80;;;11.80;99.90;;;;;;5000366;28;20042;-88
2022/08/06 00:53:56;;;;;;;2.35;2.03;;;11.80;99.90;;;;;;5016124;28;20049;-88
2022/08/06 00:56:22;;;;;;;4.13;2.15;;;11.70;99.90;;;;;;5015125;28;20045;-89
2022/08/06 00:58:48;;;;;;;4.25;2.08;;;11.70;99.90;;;;;;5015249;28;20048;-89
2022/08/06 01:01:13;;;;;;;4.07;2.33;;;11.70;99.90;;;;;;4998745;28;20104;-89
2022/08/06 01:03:39;;;;;;;3.38;1.65;;;11.70;99.90;;;;;;5004390;28;20508;-89
2022/08/06 01:06:05;;;;;;;5.07;2.20;;;11.60;99.90;;;;;;5011823;28;20053;-89
2022/08/06 01:08:30;;;;;;;4.13;2.22;;;11.60;99.90;;;;;;5001145;28;20073;-89
2022/08/06 01:10:56;;;;;;;2.05;1.85;;;11.60;99.90;;;;;;5031991;28;20045;-87
2022/08/06 01:13:21;;;;;;;8.52;2.28;;;11.50;99.90;;;;;;5015464;28;20119;-88
2022/08/06 01:16:11;;;;;;;2.22;2.03;;;11.50;99.90;;;;;;5031498;28;20049;-88
2022/08/06 01:19:14;;;;;;;7.57;2.63;;;11.50;99.90;;;;;;5017196;28;20049;-88
2022/08/06 01:21:46;;;;;;;3.85;2.20;;;11.50;99.90;;;;;;5012382;28;20042;-87
2022/08/06 01:24:30;;;;;;;3.60;2.05;;;11.40;99.90;;;;;;5011509;28;20042;-87
2022/08/06 01:27:15;;;;;;;;;;;11.40;99.90;;;;;;5012385;28;20049;-89
2022/08/06 01:29:40;;;;;;;5.63;2.90;;;11.40;99.90;;;;;;5033305;28;19999;-88
2022/08/06 01:32:11;;;;;;;6.97;2.30;;;11.40;99.90;;;;;;5015169;28;20459;-89
2022/08/06 01:34:53;;;;;;;6.38;2.15;;;11.40;99.90;;;;;;5015932;28;20063;-88
2022/08/06 01:37:26;;;;;;;4.18;2.20;;;11.40;99.90;;;;;;5015249;28;20049;-88
2022/08/06 01:39:55;;;;;;;4.15;2.28;;;11.40;99.90;;;;;;5015107;28;20068;-89
2022/08/06 01:42:20;;;;;;;6.82;2.30;;;11.30;99.90;;;;;;5015012;28;20053;-87
2022/08/06 01:44:47;;;;;;;4.35;2.05;;;11.30;99.90;;;;;;5014510;28;20045;-88
2022/08/06 01:47:13;;;;;;;4.30;2.45;;;11.30;99.90;;;;;;5014359;28;20481;-88
2022/08/06 01:49:40;;;;;;;2.95;2.20;;;11.20;99.90;;;;;;5015166;28;20057;-88
2022/08/06 01:52:07;;;;;;;5.15;2.42;;;11.20;99.90;;;;;;5014408;28;20057;-90
2022/08/06 01:54:36;;;;;;;4.20;2.60;;;11.20;99.90;;;;;;5015000;28;20050;-88
2022/08/06 01:57:02;;;;;;;4.15;2.10;;;11.20;99.90;;;;;;5014979;28;20447;-88
2022/08/06 01:59:33;;;;;;;6.05;2.30;;;11.20;99.90;;;;;;5014100;28;20132;-88
2022/08/06 02:01:59;;;;;;;4.00;2.20;;;11.20;99.90;;;;;;5015051;28;20437;-88
2022/08/06 02:04:26;;;;;;;3.78;2.22;;;11.20;99.90;;;;;;5030895;28;20099;-88
2022/08/06 02:06:52;;;;;;;2.55;2.20;;;11.20;99.90;;;;;;5014871;28;20081;-88
2022/08/06 02:09:19;;;;;;;6.10;2.80;;;11.20;99.90;;;;;;5014514;28;20084;-86
2022/08/06 02:12:11;;;;;;;2.83;2.05;;;11.10;99.90;;;;;;5014738;28;20083;-87
2022/08/06 02:14:49;;;;;;;4.53;1.83;;;11.10;99.90;;;;;;5031718;28;20049;-88
2022/08/06 02:17:15;;;;;;;3.50;2.17;;;11.10;99.90;;;;;;5030965;28;20489;-87
2022/08/06 02:19:49;;;;;;;5.82;2.60;;;11.10;99.90;;;;;;5014530;28;20401;-88
2022/08/06 02:22:15;;;;;;;2.73;1.80;;;11.10;99.90;;;;;;5018303;28;20053;-89
2022/08/06 02:24:41;;;;;;;3.60;2.22;;;11.00;99.90;;;;;;5003918;28;20299;-89
2022/08/06 02:27:07;;;;;;;2.83;2.40;;;11.00;99.90;;;;;;5021715;28;20041;-88
2022/08/06 02:29:32;;;;;;;3.00;2.08;;;11.00;99.90;;;;;;5014220;28;20049;-88
2022/08/06 02:31:58;;;;;;;3.92;2.08;;;11.00;99.90;;;;;;5014477;28;20545;-87
2022/08/06 02:34:24;;;;;;;2.60;2.40;;;11.00;99.90;;;;;;4994416;28;20088;-88
2022/08/06 02:37:03;;;;;;;3.85;2.15;;;11.00;99.90;;;;;;4978694;28;20093;-87
2022/08/06 02:39:32;;;;;;;9.80;2.75;;;11.00;99.90;;;;;;4996102;28;20053;-88
2022/08/06 02:42:16;;;;;;;3.42;2.25;;;10.90;99.90;;;;;;4994614;28;20132;-88
2022/08/06 02:45:00;;;;;;;4.57;2.00;;;10.90;99.90;;;;;;5013401;28;20037;-88
2022/08/06 02:47:31;;;;;;;2.65;2.08;;;10.90;99.90;;;;;;5015884;28;20118;-88
2022/08/06 02:49:58;;;;;;;3.47;1.92;;;10.90;99.90;;;;;;5014508;28;20486;-88
2022/08/06 02:52:46;;;;;;;3.65;2.10;;;10.90;99.90;;;;;;4997737;28;20049;-88
2022/08/06 02:55:13;;;;;;;2.10;1.95;;;10.80;99.90;;;;;;4997655;28;20061;-88
2022/08/06 02:57:56;;;;;;;3.75;2.20;;;10.80;99.90;;;;;;4997328;28;20060;-87
2022/08/06 03:00:22;;;;;;;2.67;1.80;;;10.70;99.90;;;;;;5013229;28;20052;-88
2022/08/06 03:02:48;;;;;;;2.78;2.00;;;10.80;99.90;;;;;;4997194;28;20049;-87
2022/08/06 03:05:15;;;;;;;4.90;2.20;;;10.70;99.90;;;;;;5013328;28;20137;-88
2022/08/06 03:07:41;;;;;;;4.60;2.00;;;10.70;99.90;;;;;;4981092;28;20052;-88
2022/08/06 03:10:07;;;;;;;3.78;1.90;;;10.70;99.90;;;;;;4981181;28;20041;-88
2022/08/06 03:12:33;;;;;;;3.28;1.90;;;10.70;99.90;;;;;;4980283;28;20042;-87
2022/08/06 03:15:01;;;;;;;2.22;1.95;;;10.00;99.90;;;;;;4996765;28;20099;-87
2022/08/06 03:17:27;;;;;;;3.50;2.30;;;10.60;99.90;;;;;;4981275;28;20124;-89
2022/08/06 03:19:53;;;;;;;4.18;2.28;;;10.40;99.90;;;;;;4981147;28;20525;-88
2022/08/06 03:22:18;;;;;;;3.40;2.30;;;10.60;99.90;;;;;;4980501;28;20132;-88
2022/08/06 03:24:44;;;;;;;5.10;2.10;;;10.50;99.90;;;;;;4980674;28;20132;-88
2022/08/06 03:27:10;;;;;;;4.93;2.78;;;10.50;99.90;;;;;;4996638;28;20128;-88
2022/08/06 03:29:36;;;;;;;4.60;2.63;;;10.40;99.90;;;;;;4980282;28;20045;-87
2022/08/06 03:32:02;;;;;;;4.80;3.20;;;;;;;;;;4997273;28;20107;-88
2022/08/06 03:34:28;;;;;;;3.85;2.72;;;10.50;99.90;;;;;;4996736;28;20042;-88
2022/08/06 03:36:54;;;;;;;5.65;2.88;;;10.50;99.90;;;;;;4996798;28;20049;-88
2022/08/06 03:39:19;;;;;;;7.43;3.30;;;10.50;99.90;;;;;;4980518;28;20057;-90
2022/08/06 03:41:45;;;;;;;4.00;3.10;;;10.40;99.90;;;;;;4981975;28;20053;-89
2022/08/06 03:44:10;;;;;;;4.15;2.78;;;10.50;99.90;;;;;;5001244;28;20142;-88
2022/08/06 03:46:48;;;;;;;2.92;2.72;;;10.50;99.90;;;;;;5016058;28;20038;-89
2022/08/06 03:49:22;;;;;;;5.22;2.90;;;10.50;99.90;;;;;;5001245;28;20088;-89
2022/08/06 03:51:47;;;;;;;4.70;2.95;;;10.40;99.90;;;;;;5017605;28;20488;-89
2022/08/06 03:54:13;;;;;;;7.25;4.53;;;10.40;99.90;;;;;;5000683;28;20061;-89
2022/08/06 03:56:40;;;;;;;3.85;3.47;;;10.40;99.90;;;;;;4983607;28;20064;-89
2022/08/06 03:59:06;;;;;;;4.53;3.60;;;10.40;99.90;;;;;;4984393;28;20139;-89
2022/08/06 04:01:34;;;;;;;4.35;3.78;;;10.40;99.90;;;;;;4984086;28;20151;-89
2022/08/06 04:04:00;;;;;;;5.13;3.55;;;11.10;99.90;;;;;;5008292;28;20136;-89
2022/08/06 04:06:26;;;;;;;4.70;3.95;;;10.40;99.90;;;;;;5015693;28;20179;-88
2022/08/06 04:08:51;;;;;;;6.32;4.15;;;10.40;99.90;;;;;;5016628;28;20056;-89
2022/08/06 04:11:17;;;;;;;8.68;4.00;;;10.40;99.90;;;;;;5016919;28;20053;-89
2022/08/06 04:13:43;;;;;;;6.60;4.20;;;10.40;99.90;;;;;;5016216;28;20045;-88
2022/08/06 04:16:08;;;;;;;5.60;3.88;;;10.40;99.90;;;;;;5016617;28;20049;-89
2022/08/06 04:18:35;;;;;;;8.85;3.85;;;10.40;99.90;;;;;;5015643;28;20374;-89
2022/08/06 04:21:06;;;;;;;5.00;4.00;;;10.50;99.90;;;;;;5016988;28;20042;-87
2022/08/06 04:23:31;;;;;;;4.07;3.67;;;10.50;99.90;;;;;;5015738;28;20053;-87
2022/08/06 04:25:58;;;;;;;5.10;3.42;;;10.50;99.90;;;;;;4999896;28;20048;-88
2022/08/06 04:28:24;;;;;;;3.72;3.38;;;10.50;99.90;;;;;;5015946;28;20054;-88
2022/08/06 04:30:50;;;;;;;4.45;3.45;;;10.60;99.90;;;;;;5015590;28;20049;-89
2022/08/06 04:33:18;;;;;;;4.15;3.45;;;10.60;99.90;;;;;;5016244;28;20132;-87
2022/08/06 04:35:44;;;;;;;8.50;3.20;;;10.70;99.90;;;;;;5015781;28;20058;-87
2022/08/06 04:38:10;;;;;;;4.13;3.20;;;10.80;99.90;;;;;;5015898;28;20128;-88
2022/08/06 04:40:37;;;;;;;5.45;3.63;;;10.90;99.90;;;;;;5015120;28;20053;-87
2022/08/06 04:43:04;;;;;;;5.00;3.25;;;11.10;99.90;;;;;;5032236;28;20079;-87
2022/08/06 04:45:30;;;;;;;3.97;3.55;;;11.70;99.90;;;;;;5015201;28;20077;-89
2022/08/06 04:47:56;;;;;;;4.10;2.70;;;12.30;99.90;;;;;;5015886;28;20077;-88
2022/08/06 04:50:21;;;;;;;3.75;2.30;;;13.00;99.90;;;;;;5014795;28;20045;-89
2022/08/06 04:52:47;;;;;;;2.58;1.98;;;13.60;99.90;;;;;;5030835;28;20076;-89
2022/08/06 04:55:13;;;;;;;4.32;1.95;;;14.20;99.90;;;;;;5032391;28;20054;-86
2022/08/06 04:57:38;;;;;;;3.45;2.17;;;14.70;99.90;;;;;;5015539;28;20053;-86
2022/08/06 05:00:05;;;;;;;3.83;1.95;;;15.00;99.90;;;;;;5015855;28;20102;-86
2022/08/06 05:02:30;;;;;;;5.50;2.20;;;15.50;99.90;;;;;;5032588;28;20405;-88
2022/08/06 05:04:57;;;;;;;2.90;1.98;;;15.70;99.90;;;;;;5015417;28;20065;-86
2022/08/06 05:07:28;;;;;;;3.20;1.73;;;16.00;99.90;;;;;;5000291;28;20041;-87
2022/08/06 05:09:57;;;;;;;2.50;1.35;;;16.60;99.90;;;;;;5015677;28;20088;-86
2022/08/06 05:12:27;;;;;;;1.92;1.45;;;17.00;99.90;;;;;;5016252;28;20451;-86
2022/08/06 05:15:07;;;;;;;1.50;1.40;;;16.80;99.90;;;;;;5000098;28;20587;-87
2022/08/06 05:17:35;;;;;;;1.40;1.30;;;16.40;99.90;;;;;;5032805;28;20053;-90
2022/08/06 05:20:14;;;;;;;2.85;1.40;;;15.90;99.90;;;;;;5016508;28;20047;-88
2022/08/06 05:22:41;;;;;;;3.25;1.35;;;15.80;99.90;;;;;;5016981;28;20103;-87
2022/08/06 05:25:07;;;;;;;1.52;1.20;;;16.20;99.90;;;;;;5015959;28;20050;-88
2022/08/06 05:27:33;;;;;;;2.83;1.20;;;16.70;99.90;;;;;;4999103;28;20136;-88
2022/08/06 05:29:58;;;;;;;2.90;1.50;;;17.10;99.90;;;;;;5014961;28;20136;-87
2022/08/06 05:32:24;;;;;;;1.58;1.10;;;17.60;99.90;;;;;;4999496;28;20045;-88
2022/08/06 05:34:50;;;;;;;1.38;1.20;;;17.80;99.90;;;;;;5015286;28;20136;-87
2022/08/06 05:37:15;;;;;;;2.42;1.23;;;18.10;99.90;;;;;;5015692;28;20320;-88
2022/08/06 05:39:41;;;;;;;1.98;1.00;;;18.50;99.90;;;;;;5015019;28;20042;-88
2022/08/06 05:42:07;;;;;;;2.90;1.10;;;18.80;99.90;;;;;;5031521;28;20072;-88
2022/08/06 05:44:32;;;;;;;2.30;1.13;;;19.00;99.90;;;;;;5031869;28;20045;-88
2022/08/06 05:47:04;;;;;;;1.65;1.10;;;18.10;99.90;;;;;;5014820;28;20050;-89
2022/08/06 05:49:46;;;;;;;1.00;0.90;;;17.30;99.90;;;;;;5014996;28;20092;-88
2022/08/06 05:52:38;;;;;;;1.38;1.10;;;16.40;99.90;;;;;;5015059;28;20053;-87
2022/08/06 05:55:14;;;;;;;2.17;1.33;;;15.70;99.90;;;;;;5017670;28;20052;-86
2022/08/06 05:57:47;;;;;;;2.05;1.08;;;15.40;99.90;;;;;;5014389;28;20056;-88
2022/08/06 06:00:19;;;;;;;2.67;1.10;;;15.30;99.90;;;;;;5014815;28;20045;-88
2022/08/06 06:02:49;;;;;;;1.83;1.40;;;15.20;99.90;;;;;;4998483;28;20493;-87
2022/08/06 06:05:15;;;;;;;1.83;1.13;;;16.10;99.90;;;;;;4998307;28;20042;-88
2022/08/06 06:07:41;;;;;;;3.05;1.30;;;17.20;99.90;;;;;;4997737;28;20107;-87
2022/08/06 06:10:07;;;;;;;1.67;1.13;;;18.10;99.90;;;;;;4981950;28;20092;-89
2022/08/06 06:12:34;;;;;;;1.15;0.95;;;18.70;99.90;;;;;;4981458;28;20485;-89
2022/08/06 06:15:00;;;;;;;3.22;1.05;;;19.40;99.90;;;;;;4981062;28;20057;-89
2022/08/06 06:18:01;;;;;;;2.58;1.00;;;20.10;99.90;;;;;;4998367;28;20077;-89
2022/08/06 06:20:40;;;;;;;0.93;0.93;;;20.40;99.90;;;;;;4999912;28;20045;-89
2022/08/06 06:23:14;;;;;;;1.15;0.77;;;20.50;99.90;;;;;;4997780;28;20056;-88
2022/08/06 06:26:04;;;;;;;2.10;0.90;;;21.20;99.90;;;;;;5014711;28;20128;-88
2022/08/06 06:28:37;;;;;;;2.35;0.90;;;21.20;99.90;;;;;;5000916;28;20049;-87
2022/08/06 06:31:31;;;;;;;2.17;0.68;;;21.60;99.90;;;;;;4997884;28;20049;-88
2022/08/06 06:34:15;;;;;;;1.52;0.90;;;21.60;99.90;;;;;;4996844;28;20060;-88
2022/08/06 06:36:44;;;;;;;;;;;21.40;99.90;;;;;;4982375;28;20401;-87
2022/08/06 06:39:14;;;;;;;1.90;0.80;;;22.00;99.90;;;;;;4998222;28;19929;-86
2022/08/06 06:41:47;;;;;;;2.10;0.80;;;22.50;99.90;;;;;;4998605;28;20107;-86
2022/08/06 06:44:31;;;;;;;2.33;0.80;;;22.50;99.90;;;;;;4997478;28;20053;-87
2022/08/06 06:47:02;;;;;;;1.83;0.68;;;23.10;99.90;;;;;;4997641;28;20056;-86
2022/08/06 06:49:44;;;;;;;2.40;0.77;;;22.90;99.90;;;;;;4994638;28;20054;-86
2022/08/06 06:52:37;;;;;;;1.17;0.70;;;22.80;99.90;;;;;;5001119;28;20085;-86
2022/08/06 06:55:34;;;;;;;0.75;0.60;;;23.00;99.90;;;;;;4981180;28;20107;-86
2022/08/06 06:58:25;;;;;;;0.95;0.60;;;22.70;99.90;;;;;;5014143;28;20054;-87
2022/08/06 07:00:52;;;;;;;1.60;0.65;;;23.40;99.90;;;;;;4997523;28;20053;-86
2022/08/06 07:03:18;;;;;;;1.42;0.60;;;23.40;99.90;;;;;;5000024;28;20140;-86
2022/08/06 07:05:45;;;;;;;1.27;0.68;;;24.20;99.90;;;;;;5014141;28;20573;-87
2022/08/06 07:08:11;;;;;;;1.10;0.60;;;24.20;99.90;;;;;;5030639;28;20140;-87
2022/08/06 07:10:38;;;;;;;1.10;0.60;;;24.10;99.90;;;;;;4998200;28;20109;-86
2022/08/06 07:13:04;;;;;;;0.70;0.50;;;24.30;99.90;;;;;;5014319;28;20046;-87
2022/08/06 07:15:29;;;;;;;0.52;0.52;;;24.10;99.90;;;;;;4996655;28;20195;-87
2022/08/06 07:17:55;;;;;;;1.05;0.60;;;24.20;99.90;;;;;;4997122;28;20092;-88
2022/08/06 07:20:26;;;;;;;1.77;0.98;;;24.00;99.70;;;;;;4997478;28;20507;-87
2022/08/06 07:22:53;;;;;;;3.33;0.60;;;23.60;99.90;;;;;;5029807;28;20049;-88
2022/08/06 07:25:19;;;;;;;0.75;0.70;;;23.50;99.90;;;;;;5013807;28;20050;-87
2022/08/06 07:27:46;;;;;;;2.13;0.68;;;23.50;99.90;;;;;;4998073;28;20045;-86
2022/08/06 07:30:13;;;;;;;2.47;0.70;;;24.00;99.90;;;;;;5014511;28;20042;-87
2022/08/06 07:32:39;;;;;;;2.50;0.65;;;23.90;99.90;;;;;;5014806;28;20083;-86
2022/08/06 07:35:05;;;;;;;1.42;0.50;;;24.00;99.70;;;;;;5013891;28;20861;-86
2022/08/06 07:37:31;;;;;;;1.77;0.80;;;24.50;99.60;;;;;;5012268;28;20049;-87
2022/08/06 07:39:57;;;;;;;0.50;0.50;;;24.80;99.90;;;;;;5012537;28;20055;-87
2022/08/06 07:42:24;;;;;;;1.50;0.65;;;24.70;99.50;;;;;;5013370;28;20041;-88
2022/08/06 07:44:52;;;;;;;2.35;1.00;;;24.70;99.20;;;;;;5013903;28;20053;-89
2022/08/06 07:47:22;;;;;;;1.10;0.50;;;25.00;99.30;;;;;;5013706;28;20133;-87
2022/08/06 07:49:58;;;;;;;0.93;0.50;;;24.00;99.30;;;;;;5014518;28;20124;-88
2022/08/06 07:52:23;;;;;;;1.30;0.52;;;23.60;99.30;;;;;;5014043;28;20103;-90
2022/08/06 07:54:49;;;;;;;1.48;0.75;;;24.10;98.90;;;;;;5013577;28;20053;-92
2022/08/06 07:57:14;;;;;;;2.65;0.63;;;24.60;99.10;;;;;;5014056;28;20053;-91
2022/08/06 07:59:40;;;;;;;1.02;0.50;;;24.90;98.60;;;;;;5018587;28;20037;-90
2022/08/06 08:02:06;;;;;;;1.58;0.57;;;24.60;98.30;;;;;;5014798;28;20045;-91
2022/08/06 08:07:15;;;;;;;2.22;0.60;;;25.00;97.70;;;;;;5016690;28;20150;-87
2022/08/06 08:09:42;;;;;;;1.48;0.50;;;24.80;97.50;;;;;;5014209;28;20091;-92
2022/08/06 08:12:09;;;;;;;1.75;0.40;;;24.20;98.30;;;;;;5014867;28;20061;-91
2022/08/06 08:14:35;;;;;;;1.23;0.40;;;23.20;98.70;;;;;;5029048;28;20042;-93
2022/08/06 08:17:01;;;;;;;1.20;0.60;;;22.60;99.50;;;;;;4992669;28;20049;-94
2022/08/06 08:19:31;;;;;;;2.03;0.80;;;23.20;99.50;;;;;;5012805;28;20044;-93
2022/08/06 08:21:58;;;;;;;3.28;0.60;;;24.40;98.50;;;;;;5007227;28;20158;-88
2022/08/06 08:24:25;;;;;;;1.70;0.68;;;25.20;97.80;;;;;;5014529;28;20068;-94
2022/08/06 08:26:50;;;;;;;1.08;0.68;;;24.60;98.20;;;;;;5009017;28;20053;-91
2022/08/06 08:29:16;;;;;;;1.90;0.60;;;25.20;98.30;;;;;;4992388;28;20904;-93
2022/08/06 08:31:42;;;;;;;4.40;0.77;;;24.20;98.10;;;;;;5007927;28;20104;-92
2022/08/06 08:34:07;;;;;;;2.22;0.73;;;23.30;98.50;;;;;;4990487;28;20136;-92
2022/08/06 08:36:33;;;;;;;3.03;0.70;;;22.10;98.60;;;;;;5024300;28;20085;-89
2022/08/06 08:38:59;;;;;;;2.63;0.73;;;23.00;99.00;;;;;;4991155;28;20045;-88
2022/08/06 08:41:36;;;;;;;1.83;0.70;;;24.40;98.00;;;;;;4998493;28;20042;-91
2022/08/06 08:44:05;;;;;;;0.57;0.57;;;24.90;97.40;;;;;;4966266;28;20046;-88
2022/08/06 08:46:38;;;;;;;0.95;0.52;;;24.70;97.10;;;;;;4967152;28;20049;-94
2022/08/06 08:49:05;;;;;;;1.58;0.60;;;24.90;96.90;;;;;;4983267;28;20046;-93
2022/08/06 08:51:32;;;;;;;1.00;0.80;;;24.40;97.30;;;;;;4967361;28;20061;-92
2022/08/06 08:54:00;;;;;;;0.60;0.47;;;24.60;96.20;;;;;;4998950;28;20054;-93
2022/08/06 08:56:26;;;;;;;2.40;0.70;;;23.90;97.90;;;;;;4970698;28;20049;-94
2022/08/06 08:58:51;;;;;;;1.33;0.60;;;23.20;97.80;;;;;;4989050;28;20052;-92
2022/08/06 09:01:17;;;;;;;1.88;0.85;;;22.80;98.50;;;;;;5003144;28;20045;-92
2022/08/06 09:03:43;;;;;;;6.80;1.67;;;22.20;98.00;;;;;;5000769;28;20171;-92
2022/08/06 09:06:09;;;;;;;3.15;1.38;;;21.60;98.70;;;;;;4980574;28;20259;-89
2022/08/06 09:08:36;;;;;;;2.42;0.93;;;21.40;99.60;;;;;;4998155;28;20050;-91
2022/08/06 09:11:02;;;;;;;1.80;0.80;;;21.00;99.90;;;;;;4987515;28;20081;-90
2022/08/06 09:13:27;;;;;;;1.30;0.93;;;20.60;99.90;;;;;;4997511;28;20038;-91
2022/08/06 09:15:53;;;;;;;2.53;1.20;;;20.80;99.90;;;;;;5016535;28;20053;-91
2022/08/06 09:18:23;;;;;;;2.15;1.10;;;20.70;99.90;;;;;;4996471;28;20057;-87
2022/08/06 09:20:49;;;;;;;4.07;1.30;;;20.40;99.90;;;;;;5023340;28;20046;-89
2022/08/06 09:23:16;;;;;;;2.92;1.02;;;20.60;99.90;;;;;;4992642;28;20085;-91
2022/08/06 09:25:42;;;;;;;2.72;1.10;;;20.40;99.90;;;;;;4996912;28;20053;-90
2022/08/06 09:28:25;;;;;;;2.47;1.23;;;20.70;99.90;;;;;;5031409;28;20507;-91
2022/08/06 09:31:04;;;;;;;2.40;1.10;;;21.80;99.90;;;;;;4982661;28;20087;-90
2022/08/06 09:33:31;;;;;;;5.13;1.45;;;22.90;98.30;;;;;;5013265;28;20054;-90
2022/08/06 09:36:08;;;;;;;1.45;1.10;;;24.10;97.50;;;;;;4982722;28;20045;-90
2022/08/06 09:38:55;;;;;;;2.72;1.30;;;24.40;96.50;;;;;;5009999;28;20089;-90
2022/08/06 09:41:22;;;;;;;1.95;1.00;;;25.50;96.70;;;;;;5015048;28;20120;-95
2022/08/06 09:43:50;;;;;;;3.17;1.67;;;26.10;95.80;;;;;;5018748;28;20091;-93
2022/08/06 09:46:17;;;;;;;2.28;1.50;;;26.00;95.90;;;;;;5017990;28;20057;-91
2022/08/06 09:49:03;;;;;;;2.33;1.40;;;27.10;95.50;;;;;;5017510;28;20056;-90
2022/08/06 09:51:34;;;;;;;1.58;1.40;;;26.80;95.00;;;;;;5032916;28;20065;-91
2022/08/06 09:54:05;;;;;;;3.28;1.40;;;25.80;95.20;;;;;;5017220;28;20421;-93
2022/08/06 09:57:00;;;;;;;1.10;1.00;;;24.90;96.00;;;;;;5017999;28;20052;-95
2022/08/06 09:59:26;;;;;;;2.10;0.98;;;24.00;97.20;;;;;;5016544;28;20449;-93
2022/08/06 10:02:13;;;;;;;1.30;0.90;;;22.40;99.40;;;;;;4994515;28;20065;-93
2022/08/06 10:04:39;;;;;;;2.78;0.90;;;22.00;99.90;;;;;;4981047;28;20133;-91
2022/08/06 10:07:10;;;;;;;1.27;0.80;;;22.00;99.90;;;;;;4972591;28;20180;-89
2022/08/06 10:09:52;;;;;;;;;;;;;;;;;;;;;
2022/08/06 10:12:22;;;;;;;2.40;1.20;;;21.20;99.90;;;;;;4997904;28;20485;-95
2022/08/06 10:14:51;;;;;;;1.85;1.10;;;21.20;99.90;;;;;;5003316;28;20076;-95
2022/08/06 10:17:19;;;;;;;1.92;1.27;;;20.90;99.90;;;;;;4987056;28;20053;-92
2022/08/06 10:20:13;;;;;;;1.52;1.10;;;21.00;99.90;;;;;;4988457;28;20409;-95
2022/08/06 10:22:53;;;;;;;3.67;1.20;;;21.40;99.90;;;;;;5013029;28;20119;-90
2022/08/06 10:25:20;;;;;;;4.43;1.10;;;21.50;99.90;;;;;;4995504;28;20129;-92
2022/08/06 10:27:46;;;;;;;1.85;1.10;;;21.40;99.90;;;;;;4966024;28;20049;-92
2022/08/06 10:30:12;;;;;;;1.83;0.90;;;21.60;99.90;;;;;;4982097;28;20053;-91
2022/08/06 10:32:46;;;;;;;0.88;0.80;;;22.00;99.90;;;;;;4965741;28;20041;-92
2022/08/06 10:35:14;;;;;;;1.67;0.93;;;22.20;99.90;;;;;;4967013;28;20050;-93
2022/08/06 10:37:44;;;;;;;2.50;1.10;;;22.70;99.90;;;;;;4966633;28;20073;-92
2022/08/06 10:40:11;;;;;;;2.35;1.20;;;22.00;99.90;;;;;;4966838;28;20054;-92
2022/08/06 10:42:38;;;;;;;2.80;1.08;;;21.80;99.90;;;;;;4981315;28;20126;-94
2022/08/06 10:45:05;;;;;;;3.42;1.13;;;21.50;99.90;;;;;;4981357;28;20088;-94
2022/08/06 10:47:32;;;;;;;7.57;1.15;;;21.50;99.90;;;;;;5014097;28;20497;-91
2022/08/06 10:50:00;;;;;;;3.30;1.10;;;21.30;99.90;;;;;;4982292;28;20056;-93
2022/08/06 10:52:29;;;;;;;2.35;1.02;;;21.40;99.90;;;;;;4983250;28;20049;-93
2022/08/06 10:54:59;;;;;;;2.83;1.23;;;21.80;99.90;;;;;;4982133;28;20046;-91
2022/08/06 10:57:26;;;;;;;1.98;1.42;;;21.90;99.90;;;;;;4983148;28;20053;-94
2022/08/06 10:59:54;;;;;;;1.85;1.40;;;22.60;99.30;;;;;;4966111;28;20508;-92
2022/08/06 11:03:05;;;;;;;2.95;1.60;;;22.40;97.30;;;;;;4985634;28;20109;-93
2022/08/06 11:05:35;;;;;;;2.22;1.50;;;23.40;97.60;;;;;;4978445;28;20057;-93
2022/08/06 11:08:08;;;;;;;2.10;1.35;;;24.50;98.00;;;;;;4982248;28;20112;-95
2022/08/06 11:11:07;;;;;;;2.30;1.30;;;24.50;97.00;;;;;;4997427;28;20092;-94
2022/08/06 11:13:52;;;;;;;1.30;1.20;;;23.90;97.20;;;;;;4998034;28;20057;-93
2022/08/06 11:16:25;;;;;;;3.03;1.50;;;23.60;97.90;;;;;;5000539;28;20042;-93
2022/08/06 11:18:57;;;;;;;3.03;1.60;;;23.30;98.00;;;;;;4997570;28;20050;-94
2022/08/06 11:21:43;;;;;;;3.23;1.33;;;22.60;99.00;;;;;;4981379;28;20139;-92
2022/08/06 11:24:11;;;;;;;3.72;1.67;;;22.70;98.60;;;;;;4983684;28;20572;-94
2022/08/06 11:26:40;;;;;;;2.65;1.58;;;22.60;98.90;;;;;;4984677;28;20053;-93
2022/08/06 11:29:07;;;;;;;3.05;1.50;;;22.50;99.50;;;;;;4966182;28;20150;-92
2022/08/06 11:31:36;;;;;;;5.32;1.60;;;22.50;99.50;;;;;;5016837;28;20147;-93
2022/08/06 11:34:05;;;;;;;2.08;1.30;;;22.80;99.30;;;;;;4982396;28;20057;-94
2022/08/06 11:36:46;;;;;;;2.88;1.40;;;22.90;99.50;;;;;;4981378;28;20138;-93
2022/08/06 11:39:12;;;;;;;2.03;1.35;;;22.90;99.40;;;;;;4982622;28;20046;-94
2022/08/06 11:42:04;;;;;;;4.18;1.40;;;22.90;99.40;;;;;;4997403;28;20124;-92
2022/08/06 11:44:32;;;;;;;2.85;1.60;;;22.70;98.80;;;;;;5020245;28;20057;-92
2022/08/06 11:47:16;;;;;;;4.38;1.70;;;22.70;99.50;;;;;;4991411;28;20038;-95
2022/08/06 11:49:43;;;;;;;2.88;1.30;;;22.90;99.10;;;;;;5013937;28;20332;-94
2022/08/06 11:52:08;;;;;;;2.90;1.40;;;22.80;99.40;;;;;;4997165;28;20058;-94
2022/08/06 11:54:36;;;;;;;1.80;1.50;;;23.40;98.50;;;;;;4981648;28;20429;-94
2022/08/06 11:57:04;;;;;;;2.65;1.70;;;23.90;98.30;;;;;;4981186;28;20058;-92
2022/08/06 11:59:36;;;;;;;4.15;2.03;;;24.00;97.10;;;;;;4996870;28;20064;-96
2022/08/06 12:02:04;;;;;;;3.25;1.80;;;23.90;96.70;;;;;;4982521;28;20104;-93
2022/08/06 12:04:35;;;;;;;2.28;1.73;;;23.80;96.20;;;;;;5003707;28;20069;-92
2022/08/06 12:07:22;;;;;;;1.70;1.60;;;23.90;96.10;;;;;;5004040;28;20269;-93
2022/08/06 12:10:06;;;;;;;2.28;1.83;;;23.80;96.30;;;;;;5000492;28;20513;-92
2022/08/06 12:12:37;;;;;;;2.50;1.58;;;24.10;95.60;;;;;;5017041;28;20045;-92
2022/08/06 12:15:26;;;;;;;1.70;1.60;;;23.90;96.30;;;;;;5016988;28;20052;-93
2022/08/06 12:17:59;;;;;;;1.70;1.60;;;24.20;96.60;;;;;;5000459;28;20046;-93
2022/08/06 12:20:34;;;;;;;6.07;2.03;;;24.20;95.40;;;;;;4984874;28;20060;-92
2022/08/06 12:23:05;;;;;;;2.95;2.10;;;23.90;95.60;;;;;;5017291;28;20058;-92
2022/08/06 12:25:39;;;;;;;3.17;2.00;;;23.80;95.10;;;;;;4983894;28;20092;-93
2022/08/06 12:28:07;;;;;;;2.03;1.80;;;23.10;95.30;;;;;;4985119;28;20050;-92
2022/08/06 12:30:51;;;;;;;2.03;1.75;;;23.70;96.20;;;;;;4999941;28;20099;-91
2022/08/06 12:33:17;;;;;;;;;;;23.80;95.50;;;;;;5000438;28;20548;-93
2022/08/06 12:35:49;;;;;;;2.17;1.98;;;23.10;95.40;;;;;;4999856;28;19932;-90
2022/08/06 12:38:15;;;;;;;2.28;2.00;;;23.00;96.60;;;;;;5016589;28;20502;-91
2022/08/06 12:40:40;;;;;;;3.38;2.22;;;22.70;96.90;;;;;;4984407;28;20049;-92
2022/08/06 12:43:06;;;;;;;2.38;2.10;;;22.70;96.20;;;;;;4984208;28;20049;-92
2022/08/06 12:45:32;;;;;;;3.38;2.10;;;23.00;96.20;;;;;;5016624;28;20050;-91
2022/08/06 12:48:05;;;;;;;4.72;2.10;;;22.70;96.00;;;;;;4984069;28;20042;-92
2022/08/06 12:50:32;;;;;;;3.37;2.37;;;22.80;95.60;;;;;;4985380;28;20056;-93
2022/08/06 12:53:07;;;;;;;2.30;2.10;;;22.70;96.20;;;;;;4967613;28;20706;-93
2022/08/06 12:55:36;;;;;;;3.33;2.40;;;22.80;96.80;;;;;;4999600;28;20402;-93
2022/08/06 12:58:02;;;;;;;2.28;2.08;;;23.00;96.50;;;;;;4983994;28;20054;-92
2022/08/06 13:00:28;;;;;;;2.30;2.08;;;23.20;96.40;;;;;;4984254;28;20042;-93
2022/08/06 13:02:53;;;;;;;2.63;2.38;;;23.30;96.20;;;;;;4982870;28;20253;-93
2022/08/06 13:05:19;;;;;;;3.45;2.30;;;23.00;95.70;;;;;;4970266;28;20115;-91